Time;durP1;ratioP1;P1;durP2;ratioP2;P2;SDS_P1;SDS_P2;PMS_P1;PMS_P2;Temp;Humidity;BMP_temperature;BMP_pressure;BME280_temperature;BME280_humidity;BME280_pressure;Samples;Min_cycle;Max_cycle;Signal;HPM_P1;HPM_P2
2022/10/24 00:01:48;;;;;;;24.83;13.53;;;9.40;99.90;8.70;100217;;;;569694;252;24106;-82
2022/10/24 00:04:12;;;;;;;21.53;12.60;;;9.40;99.90;8.60;100222;;;;561024;252;24112;-83
2022/10/24 00:06:40;;;;;;;28.97;14.10;;;9.40;99.90;8.60;100204;;;;569868;252;24222;-83
2022/10/24 00:09:08;;;;;;;26.90;13.97;;;9.30;99.90;8.60;100211;;;;569794;252;24142;-84
2022/10/24 00:11:37;;;;;;;25.20;13.07;;;9.30;99.90;8.50;100211;;;;559698;252;24087;-84
2022/10/24 00:14:04;;;;;;;20.60;13.70;;;9.20;99.90;8.40;100203;;;;569546;252;24122;-83
2022/10/24 00:16:36;;;;;;;28.30;13.70;;;9.20;99.90;8.40;100215;;;;561140;252;24132;-84
2022/10/24 00:19:00;;;;;;;24.90;13.27;;;9.10;99.90;8.40;100211;;;;568722;252;24138;-82
2022/10/24 00:21:29;;;;;;;25.73;12.97;;;9.10;99.90;8.30;100203;;;;560794;251;24145;-83
2022/10/24 00:23:58;;;;;;;23.00;13.67;;;9.10;99.90;8.30;100205;;;;561549;252;24157;-83
2022/10/24 00:26:26;;;;;;;26.80;14.17;;;9.00;99.90;8.30;100206;;;;569592;252;24150;-83
2022/10/24 00:28:54;;;;;;;20.97;13.90;;;9.00;99.90;8.30;100192;;;;569386;251;24105;-85
2022/10/24 00:31:24;;;;;;;29.60;13.83;;;9.00;99.90;8.20;100194;;;;569174;252;24178;-84
2022/10/24 00:33:51;;;;;;;25.03;13.20;;;9.00;99.90;8.20;100185;;;;560678;252;24139;-84
2022/10/24 00:36:18;;;;;;;24.07;13.93;;;8.90;99.90;8.20;100177;;;;560662;252;24139;-83
2022/10/24 00:38:49;;;;;;;23.13;13.30;;;8.90;99.90;8.10;100183;;;;560528;252;24225;-83
2022/10/24 00:41:17;;;;;;;25.37;13.43;;;8.90;99.90;8.10;100176;;;;568596;252;24187;-84
2022/10/24 00:43:48;;;;;;;25.60;13.27;;;8.90;99.90;8.10;100175;;;;560479;252;24170;-84
2022/10/24 00:46:13;;;;;;;23.77;12.97;;;8.90;99.90;8.10;100171;;;;560322;252;24175;-84
2022/10/24 00:48:41;;;;;;;22.57;13.77;;;8.90;99.90;8.10;100169;;;;560060;252;24165;-85
2022/10/24 00:51:23;;;;;;;23.60;13.30;;;8.80;99.90;8.10;100171;;;;560179;252;24282;-85
2022/10/24 00:53:49;;;;;;;28.53;13.97;;;8.90;99.90;8.20;100166;;;;559840;252;24230;-85
2022/10/24 00:56:17;;;;;;;25.50;14.37;;;8.90;99.90;8.30;100164;;;;560199;252;24132;-85
2022/10/24 00:58:45;;;;;;;26.27;15.07;;;9.10;99.90;8.40;100153;;;;560005;252;24182;-83
2022/10/24 01:01:14;;;;;;;28.40;14.67;;;9.20;99.90;8.50;100149;;;;560184;252;24130;-84
2022/10/24 01:03:42;;;;;;;31.37;15.57;;;9.20;99.90;8.50;100148;;;;568664;252;24136;-84
2022/10/24 01:06:41;;;;;;;29.23;15.83;;;9.40;99.90;8.60;100144;;;;568593;252;24143;-84
2022/10/24 01:09:15;;;;;;;36.23;16.70;;;9.30;99.90;8.70;100141;;;;568543;252;25210;-84
2022/10/24 01:11:54;;;;;;;35.63;16.93;;;9.40;99.90;8.70;100149;;;;558384;252;24171;-84
2022/10/24 01:14:52;;;;;;;49.50;16.37;;;9.50;99.90;8.80;100147;;;;559165;252;24167;-85
2022/10/24 01:17:29;;;;;;;36.80;16.93;;;9.50;99.90;8.80;100142;;;;559892;252;24291;-84
2022/10/24 01:20:34;;;;;;;44.13;15.60;;;9.50;99.90;8.80;100147;;;;559608;252;24180;-84
2022/10/24 01:23:20;;;;;;;39.60;17.03;;;9.60;99.90;8.90;100142;;;;568636;252;24175;-83
2022/10/24 01:26:09;;;;;;;46.70;16.07;;;9.60;99.90;8.90;100139;;;;562309;252;24167;-84
2022/10/24 01:29:00;;;;;;;56.47;16.60;;;9.60;99.90;9.00;100142;;;;559762;252;24164;-84
2022/10/24 01:31:43;;;;;;;54.33;15.73;;;9.70;99.90;9.00;100130;;;;559934;252;24175;-83
2022/10/24 01:34:30;;;;;;;58.43;16.90;;;9.70;99.90;9.00;100140;;;;560421;252;25218;-82
2022/10/24 01:37:04;;;;;;;39.43;14.83;;;9.70;99.90;9.00;100129;;;;559248;252;24133;-83
2022/10/24 01:39:32;;;;;;;44.67;16.30;;;9.70;99.90;9.10;100126;;;;559987;252;24112;-84
2022/10/24 01:42:00;;;;;;;47.20;15.23;;;9.80;99.90;9.10;100126;;;;560455;252;24196;-84
2022/10/24 01:44:33;;;;;;;50.63;18.03;;;9.80;99.90;9.10;100117;;;;560423;252;24127;-83
2022/10/24 01:47:13;;;;;;;47.97;17.90;;;9.80;99.90;9.20;100112;;;;560144;252;24162;-82
2022/10/24 01:49:41;;;;;;;47.63;18.70;;;9.90;99.90;9.20;100114;;;;560160;252;24166;-81
2022/10/24 01:52:09;;;;;;;45.40;17.63;;;10.00;99.90;9.20;100120;;;;560160;252;24175;-83
2022/10/24 01:54:41;;;;;;;34.47;17.70;;;9.90;99.90;9.30;100105;;;;560042;252;24210;-83
2022/10/24 01:57:05;;;;;;;36.67;17.40;;;10.00;99.90;9.30;100101;;;;559891;252;24201;-83
2022/10/24 01:59:33;;;;;;;45.57;17.63;;;10.00;99.90;9.30;100100;;;;560213;252;24193;-83
2022/10/24 02:02:19;;;;;;;36.90;17.20;;;10.00;99.90;9.30;100099;;;;560560;252;24154;-83
2022/10/24 02:05:02;;;;;;;66.93;18.60;;;10.10;99.90;9.40;100098;;;;560504;252;24142;-82
2022/10/24 02:07:30;;;;;;;49.27;15.80;;;10.10;99.90;9.30;100096;;;;560084;252;24123;-82
2022/10/24 02:10:04;;;;;;;56.97;17.30;;;10.00;99.90;9.30;100099;;;;560344;252;24137;-83
2022/10/24 02:12:32;;;;;;;50.67;18.37;;;10.00;99.90;9.30;100082;;;;560025;252;24162;-84
2022/10/24 02:15:03;;;;;;;71.13;16.73;;;10.00;99.90;9.30;100089;;;;559852;252;24144;-82
2022/10/24 02:17:33;;;;;;;94.13;17.23;;;10.00;99.90;9.30;100086;;;;559727;252;24164;-81
2022/10/24 02:19:59;;;;;;;67.37;15.93;;;9.90;99.90;9.20;100078;;;;559703;252;24130;-81
2022/10/24 02:22:28;;;;;;;67.03;15.40;;;9.90;99.90;9.20;100064;;;;559991;252;24156;-82
2022/10/24 02:25:02;;;;;;;65.43;15.63;;;9.90;99.90;9.20;100056;;;;560094;252;24126;-83
2022/10/24 02:27:29;;;;;;;43.90;14.90;;;9.90;99.90;9.20;100051;;;;559889;252;24149;-82
2022/10/24 02:30:13;;;;;;;40.57;15.07;;;9.90;99.90;9.10;100050;;;;559303;252;24145;-82
2022/10/24 02:32:43;;;;;;;60.43;15.43;;;9.90;99.90;9.10;100055;;;;557977;252;24123;-84
2022/10/24 02:35:11;;;;;;;48.50;15.00;;;9.80;99.90;9.10;100049;;;;560123;252;24136;-83
2022/10/24 02:37:42;;;;;;;42.97;13.43;;;9.80;99.90;9.10;100046;;;;560056;252;24123;-83
2022/10/24 02:40:10;;;;;;;35.17;15.17;;;9.80;99.90;9.10;100054;;;;560266;252;24125;-82
2022/10/24 02:42:39;;;;;;;30.57;15.13;;;9.80;99.90;9.10;100065;;;;560047;252;24128;-82
2022/10/24 02:45:08;;;;;;;38.40;15.80;;;9.80;99.90;9.10;100065;;;;560750;251;24175;-82
2022/10/24 02:47:35;;;;;;;42.83;17.67;;;9.80;99.90;9.10;100059;;;;561209;252;24153;-82
2022/10/24 02:50:02;;;;;;;45.63;17.30;;;9.80;99.90;9.10;100037;;;;569604;252;24116;-82
2022/10/24 02:52:30;;;;;;;46.57;17.67;;;9.80;99.90;9.10;100038;;;;561530;252;24150;-81
2022/10/24 02:54:58;;;;;;;59.83;16.00;;;9.80;99.90;9.20;100040;;;;569427;252;24196;-82
2022/10/24 02:57:29;;;;;;;52.23;17.23;;;9.90;99.90;9.20;100041;;;;569188;252;24128;-83
2022/10/24 02:59:54;;;;;;;40.57;17.33;;;9.90;99.90;9.20;100053;;;;560943;252;24218;-84
2022/10/24 03:02:26;;;;;;;49.40;17.37;;;9.90;99.90;9.20;100043;;;;569087;251;24183;-83
2022/10/24 03:04:51;;;;;;;61.17;19.10;;;9.90;99.90;9.20;100047;;;;560278;252;24168;-82
2022/10/24 03:07:19;;;;;;;49.03;18.37;;;10.00;99.90;9.30;100052;;;;569064;252;25220;-82
2022/10/24 03:09:48;;;;;;;65.27;19.17;;;10.00;99.90;9.30;100052;;;;560652;252;24138;-83
2022/10/24 03:12:19;;;;;;;49.53;16.63;;;10.00;99.90;9.30;100043;;;;560473;252;24161;-84
2022/10/24 03:14:44;;;;;;;60.90;18.17;;;10.00;99.90;9.30;100048;;;;559781;252;24219;-83
2022/10/24 03:17:12;;;;;;;51.43;18.40;;;10.00;99.90;9.30;100046;;;;560374;252;24138;-83
2022/10/24 03:19:40;;;;;;;49.07;14.33;;;10.00;99.90;9.30;100035;;;;560414;252;24138;-83
2022/10/24 03:22:11;;;;;;;82.93;18.13;;;10.00;99.90;9.30;100041;;;;560360;252;24120;-84
2022/10/24 03:24:37;;;;;;;66.03;19.67;;;10.00;99.90;9.30;100038;;;;560072;252;24155;-84
2022/10/24 03:27:05;;;;;;;72.73;17.53;;;10.00;99.90;9.30;100025;;;;560238;252;24189;-84
2022/10/24 03:29:33;;;;;;;68.37;18.03;;;10.00;99.90;9.30;100022;;;;560297;252;24197;-84
2022/10/24 03:32:04;;;;;;;64.67;15.90;;;10.00;99.90;9.30;100012;;;;560356;252;24206;-83
2022/10/24 03:34:32;;;;;;;55.47;18.30;;;10.00;99.90;9.30;100016;;;;560156;252;24221;-83
2022/10/24 03:36:57;;;;;;;72.90;17.87;;;10.00;99.90;9.20;100012;;;;564122;252;24145;-84
2022/10/24 03:39:28;;;;;;;102.77;18.57;;;10.00;99.90;9.20;100005;;;;560439;252;24179;-85
2022/10/24 03:41:53;;;;;;;73.97;16.87;;;9.90;99.90;9.20;100013;;;;560056;252;24135;-83
2022/10/24 03:44:21;;;;;;;104.23;18.43;;;9.90;99.90;9.20;100007;;;;568416;252;24173;-85
2022/10/24 03:46:49;;;;;;;67.23;19.00;;;9.90;99.90;9.20;100000;;;;568483;252;24131;-84
2022/10/24 03:49:16;;;;;;;79.07;19.67;;;9.90;99.90;9.20;99996;;;;568397;252;24133;-85
2022/10/24 03:51:47;;;;;;;93.80;17.20;;;9.90;99.90;9.10;99987;;;;568571;252;24151;-86
2022/10/24 03:54:14;;;;;;;80.97;19.10;;;9.90;99.90;9.10;99982;;;;559974;252;24109;-84
2022/10/24 03:56:44;;;;;;;83.03;18.10;;;9.90;99.90;9.10;99971;;;;569630;251;24124;-84
2022/10/24 03:59:11;;;;;;;59.00;17.33;;;9.80;99.90;9.10;99983;;;;561740;252;24127;-84
2022/10/24 04:01:39;;;;;;;67.73;18.20;;;9.80;99.90;9.10;99987;;;;569964;252;24165;-84
2022/10/24 04:04:11;;;;;;;69.57;16.80;;;9.80;99.90;9.10;99983;;;;561167;252;24186;-85
2022/10/24 04:06:36;;;;;;;117.43;19.10;;;9.80;99.90;9.10;99989;;;;560934;252;24245;-83
2022/10/24 04:09:04;;;;;;;139.20;20.40;;;9.80;99.90;9.10;99992;;;;569320;252;24162;-83
2022/10/24 04:11:32;;;;;;;77.37;19.53;;;9.80;99.90;9.10;99997;;;;560636;252;24127;-83
2022/10/24 04:14:03;;;;;;;90.37;19.17;;;9.80;99.90;9.10;100008;;;;568885;252;24202;-83
2022/10/24 04:16:31;;;;;;;145.20;21.23;;;9.80;99.90;9.10;100005;;;;560607;252;24134;-83
2022/10/24 04:18:55;;;;;;;107.03;17.70;;;9.80;99.90;9.10;100019;;;;560629;252;24170;-84
2022/10/24 04:21:23;;;;;;;111.73;20.80;;;9.80;99.90;9.10;100010;;;;569446;252;24118;-82
2022/10/24 04:23:51;;;;;;;165.30;22.60;;;9.80;99.90;9.10;99993;;;;560934;252;24130;-83
2022/10/24 04:26:19;;;;;;;148.97;20.50;;;9.80;99.90;9.10;99991;;;;569401;252;25198;-83
2022/10/24 04:28:47;;;;;;;97.60;16.70;;;9.80;99.90;9.10;99990;;;;558916;252;24195;-83
2022/10/24 04:31:15;;;;;;;124.47;17.37;;;9.80;99.90;9.10;99982;;;;561010;252;24162;-83
2022/10/24 04:33:43;;;;;;;107.47;20.30;;;9.80;99.90;9.10;99987;;;;559252;252;24111;-84
2022/10/24 04:36:11;;;;;;;89.10;19.73;;;9.80;99.90;9.10;99988;;;;569430;252;24158;-84
2022/10/24 04:38:39;;;;;;;129.97;20.70;;;9.80;99.90;9.10;99990;;;;561237;252;24150;-83
2022/10/24 04:41:07;;;;;;;148.93;22.53;;;9.80;99.90;9.10;99986;;;;569787;252;24115;-83
2022/10/24 04:43:35;;;;;;;143.07;22.57;;;9.80;99.90;9.10;99985;;;;561490;252;24112;-84
2022/10/24 04:46:05;;;;;;;122.37;22.73;;;9.80;99.90;9.10;99980;;;;569834;252;24130;-83
2022/10/24 04:48:33;;;;;;;75.00;21.30;;;9.80;99.90;9.20;99972;;;;569638;252;24146;-82
2022/10/24 04:51:01;;;;;;;104.83;20.30;;;9.90;99.90;9.20;99975;;;;561175;252;24131;-83
2022/10/24 04:53:26;;;;;;;89.20;20.93;;;9.90;99.90;9.20;99974;;;;560722;252;24166;-84
2022/10/24 04:55:58;;;;;;;88.93;19.93;;;9.90;99.90;9.20;99975;;;;561061;252;24129;-84
2022/10/24 04:58:25;;;;;;;103.03;19.87;;;9.90;99.90;9.20;99974;;;;560951;252;25276;-82
2022/10/24 05:00:56;;;;;;;68.00;19.93;;;9.90;99.90;9.20;99967;;;;569600;252;24164;-82
2022/10/24 05:03:22;;;;;;;103.70;19.60;;;9.90;99.90;9.20;99966;;;;561600;244;24119;-83
2022/10/24 05:05:49;;;;;;;75.73;19.53;;;10.00;99.90;9.30;99965;;;;560004;241;24141;-83
2022/10/24 05:08:20;;;;;;;92.00;19.40;;;9.90;99.90;9.20;99970;;;;562339;244;24137;-84
2022/10/24 05:10:45;;;;;;;52.47;20.30;;;9.90;99.90;9.20;99968;;;;562940;248;24123;-83
2022/10/24 05:13:13;;;;;;;91.87;20.23;;;9.90;99.90;9.30;99979;;;;562712;248;24119;-82
2022/10/24 05:15:44;;;;;;;105.40;20.33;;;10.00;99.90;9.30;99984;;;;570743;244;24181;-83
2022/10/24 05:18:09;;;;;;;63.30;20.53;;;10.00;99.90;9.30;99986;;;;562043;248;24131;-85
2022/10/24 05:20:40;;;;;;;74.13;20.60;;;10.00;99.90;9.30;99994;;;;562112;246;25283;-82
2022/10/24 05:23:08;;;;;;;77.50;21.57;;;10.00;99.90;9.30;99992;;;;570368;243;24100;-82
2022/10/24 05:25:33;;;;;;;112.93;21.00;;;10.00;99.90;9.30;99986;;;;570211;243;24125;-83
2022/10/24 05:28:01;;;;;;;95.33;22.40;;;10.00;99.90;9.30;99996;;;;561776;246;24097;-84
2022/10/24 05:30:29;;;;;;;67.80;21.17;;;10.00;99.90;9.30;99996;;;;561940;244;24157;-84
2022/10/24 05:32:56;;;;;;;81.30;19.87;;;10.00;99.90;9.30;99992;;;;562162;244;24196;-82
2022/10/24 05:35:27;;;;;;;139.83;21.83;;;10.00;99.90;9.40;100004;;;;562077;248;24141;-83
2022/10/24 05:37:56;;;;;;;120.87;22.13;;;10.10;99.90;9.30;100001;;;;570412;252;24246;-83
2022/10/24 05:40:23;;;;;;;57.80;21.23;;;10.00;99.90;9.30;100004;;;;561717;251;24139;-85
2022/10/24 05:42:49;;;;;;;96.03;22.93;;;10.00;99.90;9.40;100005;;;;561738;244;24138;-85
2022/10/24 05:45:16;;;;;;;115.53;22.77;;;10.10;99.90;9.40;100007;;;;562028;252;24138;-84
2022/10/24 05:47:47;;;;;;;80.63;24.73;;;10.10;99.90;9.40;100005;;;;569733;252;24135;-85
2022/10/24 05:50:12;;;;;;;139.67;24.70;;;10.10;99.90;9.40;100000;;;;568997;252;24194;-84
2022/10/24 05:52:41;;;;;;;102.00;22.60;;;10.10;99.90;9.40;99993;;;;561138;252;24194;-85
2022/10/24 05:55:08;;;;;;;84.13;23.23;;;10.10;99.90;9.50;99988;;;;561490;252;24171;-84
2022/10/24 05:57:39;;;;;;;101.30;22.63;;;10.20;99.90;9.50;99986;;;;561270;252;24119;-83
2022/10/24 06:00:07;;;;;;;77.50;22.57;;;10.20;99.90;9.50;99985;;;;568517;250;24134;-85
2022/10/24 06:02:36;;;;;;;84.83;22.43;;;10.20;99.90;9.50;99980;;;;560324;252;24219;-82
2022/10/24 06:05:05;;;;;;;113.87;23.13;;;10.20;99.90;9.50;99973;;;;560759;252;24136;-84
2022/10/24 06:07:34;;;;;;;79.73;21.70;;;10.20;99.90;9.50;99964;;;;560710;252;24143;-83
2022/10/24 06:10:01;;;;;;;200.23;37.07;;;10.20;99.90;9.50;99968;;;;564819;252;46435;-82
2022/10/24 06:12:28;;;;;;;133.77;29.03;;;10.20;99.90;9.50;99966;;;;561871;248;24166;-83
2022/10/24 06:14:59;;;;;;;131.90;25.37;;;10.20;99.90;9.50;99962;;;;561221;252;24127;-84
2022/10/24 06:17:27;;;;;;;109.17;22.20;;;10.20;99.90;9.50;99968;;;;561068;252;24142;-83
2022/10/24 06:19:52;;;;;;;82.50;17.30;;;10.20;99.90;9.50;99964;;;;561273;251;24105;-83
2022/10/24 06:22:23;;;;;;;87.00;20.27;;;10.20;99.90;9.50;99968;;;;562014;252;24129;-84
2022/10/24 06:24:49;;;;;;;72.13;17.53;;;10.20;99.90;9.50;99968;;;;561534;252;24165;-83
2022/10/24 06:27:21;;;;;;;86.60;21.90;;;10.20;99.90;9.50;99981;;;;561703;252;24114;-83
2022/10/24 06:29:50;;;;;;;117.13;21.60;;;10.20;99.90;9.50;99967;;;;569606;252;24147;-83
2022/10/24 06:32:15;;;;;;;107.13;20.07;;;10.20;99.90;9.50;99968;;;;553380;255;24194;-85
2022/10/24 06:34:43;;;;;;;114.40;21.93;;;10.30;99.90;9.60;99949;;;;553162;255;24283;-85
2022/10/24 06:37:11;;;;;;;109.47;22.43;;;10.20;99.90;9.60;99955;;;;553141;255;24209;-84
2022/10/24 06:39:43;;;;;;;186.30;21.70;;;10.30;99.90;9.50;99946;;;;557085;252;24123;-85
2022/10/24 06:42:07;;;;;;;146.63;23.27;;;10.30;99.90;9.50;99944;;;;565225;254;24156;-84
2022/10/24 06:44:35;;;;;;;176.50;22.10;;;10.30;99.90;9.60;99940;;;;565550;252;24147;-84
2022/10/24 06:47:07;;;;;;;134.47;21.47;;;10.30;99.90;9.60;99943;;;;557366;254;24121;-85
2022/10/24 06:49:34;;;;;;;112.57;20.37;;;10.30;99.90;9.60;99945;;;;556980;254;24112;-84
2022/10/24 06:51:59;;;;;;;135.40;21.93;;;10.30;99.90;9.60;99950;;;;556818;254;24159;-84
2022/10/24 06:54:27;;;;;;;142.80;21.80;;;10.30;99.90;9.60;99951;;;;565141;252;24133;-85
2022/10/24 06:56:55;;;;;;;150.43;23.10;;;10.30;99.90;9.60;99938;;;;556669;254;24132;-84
2022/10/24 06:59:23;;;;;;;107.87;23.93;;;10.30;99.90;9.60;99941;;;;556457;254;24135;-85
2022/10/24 07:01:54;;;;;;;158.97;22.70;;;10.30;99.90;9.70;99941;;;;564966;252;24160;-84
2022/10/24 07:04:23;;;;;;;119.27;22.33;;;10.40;99.90;9.70;99934;;;;556284;254;24164;-84
2022/10/24 07:06:52;;;;;;;175.40;26.13;;;10.40;99.90;9.70;99944;;;;556672;254;24187;-85
2022/10/24 07:09:20;;;;;;;145.37;23.10;;;10.40;99.90;9.70;99934;;;;556076;253;24143;-84
2022/10/24 07:11:47;;;;;;;171.40;24.77;;;10.40;99.90;9.70;99940;;;;564752;254;24171;-84
2022/10/24 07:14:12;;;;;;;182.00;24.90;;;10.50;99.90;9.80;99941;;;;556178;254;24129;-84
2022/10/24 07:16:45;;;;;;;126.43;23.83;;;10.50;99.90;9.80;99944;;;;556315;254;24121;-84
2022/10/24 07:19:12;;;;;;;152.27;25.23;;;10.50;99.90;9.80;99958;;;;556365;254;24174;-83
2022/10/24 07:21:40;;;;;;;115.83;25.57;;;10.60;99.90;9.90;99950;;;;564481;254;24117;-84
2022/10/24 07:24:09;;;;;;;81.30;24.43;;;10.60;99.90;9.90;99963;;;;556246;254;24167;-85
2022/10/24 07:26:33;;;;;;;152.80;28.30;;;10.60;99.90;9.90;99956;;;;556483;254;24128;-84
2022/10/24 07:29:05;;;;;;;93.57;26.47;;;10.70;99.90;10.00;99967;;;;565237;252;24188;-84
2022/10/24 07:31:32;;;;;;;149.27;26.70;;;10.70;99.90;10.00;99962;;;;557778;253;24162;-84
2022/10/24 07:34:00;;;;;;;94.90;27.37;;;10.70;99.90;10.00;99973;;;;566055;254;24160;-84
2022/10/24 07:36:27;;;;;;;76.47;27.23;;;10.70;99.90;10.10;99973;;;;557295;253;24180;-83
2022/10/24 07:38:53;;;;;;;93.03;27.77;;;10.80;99.90;10.10;99974;;;;561140;254;24233;-84
2022/10/24 07:41:20;;;;;;;80.10;28.30;;;10.80;99.90;10.20;99981;;;;563633;251;24152;-83
2022/10/24 07:43:51;;;;;;;66.67;30.03;;;10.90;99.90;10.20;99977;;;;573977;250;24147;-83
2022/10/24 07:46:23;;;;;;;70.53;29.07;;;10.90;99.90;10.20;99984;;;;565055;250;24133;-83
2022/10/24 07:48:54;;;;;;;74.60;27.10;;;10.90;99.90;10.30;99986;;;;564770;250;24181;-83
2022/10/24 07:51:26;;;;;;;55.17;25.60;;;11.00;99.90;10.30;99986;;;;552039;256;24189;-84
2022/10/24 07:53:50;;;;;;;55.57;27.50;;;11.00;99.90;10.30;99988;;;;561833;255;24194;-84
2022/10/24 07:56:22;;;;;;;65.43;27.33;;;11.00;99.90;10.40;99988;;;;553580;255;24218;-82
2022/10/24 07:58:50;;;;;;;61.80;27.63;;;11.10;99.90;10.40;99981;;;;551480;255;24153;-82
2022/10/24 08:01:18;;;;;;;61.47;28.30;;;11.10;99.90;10.50;99979;;;;553395;255;24243;-82
2022/10/24 08:03:47;;;;;;;63.70;28.03;;;11.20;99.90;10.60;99973;;;;556436;254;24161;-82
2022/10/24 08:06:11;;;;;;;70.97;29.63;;;11.20;99.90;10.70;99975;;;;564810;254;24108;-84
2022/10/24 08:08:43;;;;;;;64.13;28.97;;;11.40;99.90;10.70;99966;;;;556884;254;24174;-83
2022/10/24 08:11:17;;;;;;;61.57;28.13;;;11.40;99.90;10.80;99963;;;;553476;254;24206;-83
2022/10/24 08:13:48;;;;;;;67.20;27.23;;;11.40;99.90;10.80;99964;;;;553281;254;24113;-84
2022/10/24 08:16:17;;;;;;;68.07;32.17;;;11.50;99.90;10.80;99960;;;;564607;254;24189;-85
2022/10/24 08:18:44;;;;;;;56.80;27.87;;;11.50;99.90;10.80;99961;;;;556183;254;24293;-83
2022/10/24 08:21:09;;;;;;;65.50;28.83;;;11.50;99.90;10.80;99952;;;;556303;254;24196;-84
2022/10/24 08:23:37;;;;;;;61.97;29.33;;;11.50;99.90;10.80;99958;;;;556834;254;24133;-84
2022/10/24 08:26:08;;;;;;;64.90;30.40;;;11.50;99.90;10.80;99956;;;;562232;251;24193;-86
2022/10/24 08:28:38;;;;;;;62.60;29.43;;;11.50;99.90;10.70;99959;;;;564458;250;24275;-85
2022/10/24 08:31:02;;;;;;;61.20;29.00;;;11.50;99.90;10.90;99960;;;;572742;250;24151;-84
2022/10/24 08:33:30;;;;;;;67.87;32.27;;;11.50;99.90;10.90;99964;;;;559376;256;24155;-84
2022/10/24 08:35:58;;;;;;;86.63;45.10;;;11.60;99.90;11.00;99959;;;;567161;247;35486;-83
2022/10/24 08:38:29;;;;;;;71.80;33.87;;;11.70;99.90;11.10;99958;;;;555315;252;24135;-84
2022/10/24 08:40:54;;;;;;;65.70;32.87;;;11.80;99.90;11.20;99958;;;;555608;253;24153;-84
2022/10/24 08:43:25;;;;;;;64.03;32.63;;;11.90;99.90;11.20;99966;;;;553795;253;24156;-84
2022/10/24 08:46:02;;;;;;;60.63;30.73;;;12.00;99.90;11.30;99959;;;;556692;254;24179;-83
2022/10/24 08:48:33;;;;;;;56.67;28.80;;;12.00;99.90;11.30;99964;;;;562529;251;24149;-83
2022/10/24 08:51:26;;;;;;;61.20;31.20;;;12.00;99.90;11.30;99966;;;;564157;250;24105;-83
2022/10/24 08:53:55;;;;;;;54.73;29.90;;;12.00;99.90;11.40;99959;;;;564283;250;24139;-82
2022/10/24 08:56:21;;;;;;;56.30;30.23;;;12.10;99.90;11.30;99952;;;;564387;250;24159;-82
2022/10/24 08:58:53;;;;;;;52.63;27.77;;;12.10;99.90;11.40;99958;;;;552942;255;24211;-84
2022/10/24 09:01:21;;;;;;;58.87;30.90;;;12.10;99.90;11.40;99954;;;;552671;255;24155;-82
2022/10/24 09:03:50;;;;;;;50.17;28.83;;;12.10;99.90;11.40;99954;;;;548900;254;24273;-82
2022/10/24 09:06:21;;;;;;;58.20;32.73;;;12.10;99.90;11.50;99954;;;;564353;254;24146;-83
2022/10/24 09:09:00;;;;;;;53.67;29.40;;;12.20;99.90;11.50;99951;;;;553676;254;24127;-83
2022/10/24 09:11:55;;;;;;;51.20;29.80;;;12.20;99.90;11.60;99947;;;;564491;252;24110;-82
2022/10/24 09:14:29;;;;;;;54.57;29.57;;;12.30;99.90;11.60;99949;;;;552714;254;24171;-82
2022/10/24 09:17:03;;;;;;;54.67;27.37;;;12.40;99.90;11.70;99967;;;;564239;254;24121;-82
2022/10/24 09:19:29;;;;;;;48.33;27.50;;;12.40;99.90;11.70;99968;;;;564160;252;24189;-84
2022/10/24 09:21:57;;;;;;;44.97;26.47;;;12.40;99.90;11.80;99973;;;;556055;254;24146;-84
2022/10/24 09:24:42;;;;;;;47.57;27.17;;;12.50;99.90;11.90;99966;;;;564809;252;24142;-83
2022/10/24 09:27:04;;;;;;;48.43;27.53;;;12.60;99.90;12.00;99971;;;;551439;254;24148;-84
2022/10/24 09:29:38;;;;;;;51.00;28.83;;;12.70;99.90;12.10;99967;;;;563056;251;24106;-84
2022/10/24 09:32:06;;;;;;;52.10;28.53;;;12.80;99.90;12.20;99968;;;;561243;255;24228;-84
2022/10/24 09:34:32;;;;;;;50.33;30.23;;;12.90;99.90;12.20;99973;;;;552363;255;24160;-84
2022/10/24 09:37:01;;;;;;;44.60;27.47;;;12.90;99.90;12.10;99970;;;;564887;254;24140;-84
2022/10/24 09:39:35;;;;;;;45.97;26.47;;;13.00;99.90;12.20;99977;;;;564891;252;24120;-83
2022/10/24 09:42:00;;;;;;;43.50;26.83;;;13.00;99.90;12.20;99988;;;;563437;253;24165;-84
2022/10/24 09:44:33;;;;;;;54.97;28.97;;;13.00;99.90;12.20;99991;;;;556099;254;24192;-84
2022/10/24 09:47:04;;;;;;;43.53;26.57;;;13.00;99.90;12.30;99999;;;;562122;251;24133;-82
2022/10/24 09:49:32;;;;;;;48.07;27.77;;;13.00;99.90;12.40;99997;;;;562110;251;24124;-84
2022/10/24 09:52:18;;;;;;;46.67;26.33;;;13.00;99.90;12.40;99987;;;;552273;255;24207;-83
2022/10/24 09:54:46;;;;;;;44.43;26.30;;;13.20;99.90;12.50;99992;;;;553026;255;24141;-83
2022/10/24 09:57:14;;;;;;;41.60;25.13;;;13.20;99.90;12.60;99992;;;;556867;254;24192;-84
2022/10/24 09:59:45;;;;;;;39.77;25.57;;;13.30;99.90;12.70;99993;;;;556678;254;24161;-83
2022/10/24 10:02:23;;;;;;;44.67;27.73;;;13.40;99.90;12.70;99986;;;;556309;254;24132;-83
2022/10/24 10:05:02;;;;;;;37.87;25.23;;;13.50;99.90;12.70;99993;;;;556342;254;24142;-83
2022/10/24 10:07:39;;;;;;;40.77;25.73;;;13.50;99.90;12.80;99990;;;;556165;254;24148;-83
2022/10/24 10:10:31;;;;;;;39.27;23.67;;;13.60;99.90;12.90;99997;;;;556471;254;24111;-83
2022/10/24 10:13:14;;;;;;;40.50;25.13;;;13.70;99.90;13.00;99998;;;;562272;251;24137;-84
2022/10/24 10:15:49;;;;;;;41.07;26.43;;;13.80;99.90;13.00;99986;;;;572123;250;24133;-84
2022/10/24 10:18:26;;;;;;;41.50;25.43;;;13.90;99.90;13.10;99981;;;;550578;255;24157;-83
2022/10/24 10:21:06;;;;;;;31.93;23.40;;;13.80;99.90;13.20;99982;;;;560404;256;24168;-84
2022/10/24 10:23:40;;;;;;;38.70;23.77;;;14.00;99.90;13.30;99969;;;;549950;254;24125;-84
2022/10/24 10:26:22;;;;;;;31.10;21.37;;;14.00;99.90;13.40;99960;;;;562294;251;24173;-84
2022/10/24 10:28:59;;;;;;;38.67;23.33;;;14.20;99.90;13.70;99953;;;;563667;250;24118;-84
2022/10/24 10:31:36;;;;;;;34.07;21.90;;;14.40;99.90;14.00;99964;;;;551992;255;24183;-83
2022/10/24 10:34:22;;;;;;;30.17;21.33;;;14.70;99.90;14.30;99961;;;;555762;253;24135;-84
2022/10/24 10:36:59;;;;;;;30.33;21.07;;;15.00;99.90;14.50;99968;;;;556004;254;24212;-84
2022/10/24 10:39:29;;;;;;;32.73;22.63;;;15.20;99.90;14.60;99951;;;;559844;254;24167;-84
2022/10/24 10:42:03;;;;;;;23.80;18.63;;;15.40;99.90;14.70;99945;;;;556716;253;24135;-84
2022/10/24 10:45:23;;;;;;;24.93;18.03;;;15.50;99.90;14.80;99937;;;;556424;253;24128;-83
2022/10/24 10:48:22;;;;;;;30.63;20.90;;;15.60;99.90;14.90;99929;;;;556834;254;24130;-83
2022/10/24 10:51:11;;;;;;;25.33;19.53;;;15.60;99.90;15.10;99926;;;;556223;254;24117;-83
2022/10/24 10:54:18;;;;;;;30.83;19.43;;;15.80;99.90;15.30;99928;;;;556740;252;24107;-83
2022/10/24 10:56:55;;;;;;;23.43;19.23;;;16.00;99.90;15.50;99926;;;;556541;254;24121;-83
2022/10/24 10:59:40;;;;;;;23.90;18.63;;;16.20;99.90;15.70;99911;;;;556326;254;24139;-84
2022/10/24 11:03:04;;;;;;;27.33;20.47;;;16.40;99.90;15.60;99907;;;;564680;247;24121;-83
2022/10/24 11:05:40;;;;;;;32.60;25.60;;;16.40;99.90;15.60;99895;;;;551056;253;35617;-83
2022/10/24 11:08:19;;;;;;;25.67;21.03;;;16.30;99.90;15.40;99888;;;;534672;264;24263;-82
2022/10/24 11:10:55;;;;;;;24.67;19.70;;;16.20;99.90;15.20;99886;;;;569036;246;24163;-83
2022/10/24 11:13:38;;;;;;;26.97;19.57;;;16.00;99.90;15.20;99895;;;;574391;246;24115;-83
2022/10/24 11:16:06;;;;;;;28.07;19.77;;;15.90;99.90;15.30;99889;;;;574135;246;24088;-84
2022/10/24 11:18:37;;;;;;;34.07;22.17;;;16.00;99.90;15.30;99891;;;;573841;246;24166;-83
2022/10/24 11:21:05;;;;;;;26.97;21.30;;;16.00;99.90;15.30;99892;;;;573543;246;24113;-84
2022/10/24 11:23:53;;;;;;;30.83;22.23;;;16.00;99.90;15.20;99896;;;;573895;246;24100;-82